sensor_id;sensor_type;location;lat;lon;timestamp;temperature;humidity
50816;DHT22;39717;47.324;8.788;2023-03-14T17:10:29;7.70;99.90
50816;DHT22;39717;47.324;8.788;2023-03-14T17:12:55;5.90;96.00
50816;DHT22;39717;47.324;8.788;2023-03-14T17:15:20;5.80;99.90
50816;DHT22;39717;47.324;8.788;2023-03-14T17:17:46;5.70;99.90
50816;DHT22;39717;47.324;8.788;2023-03-14T17:20:12;5.70;99.90
50816;DHT22;39717;47.324;8.788;2023-03-14T17:22:38;5.60;99.90
50816;DHT22;39717;47.324;8.788;2023-03-14T17:25:04;5.30;99.90
50816;DHT22;39717;47.324;8.788;2023-03-14T17:27:30;5.10;99.90
50816;DHT22;39717;47.324;8.788;2023-03-14T17:29:56;5.00;99.90
50816;DHT22;39717;47.324;8.788;2023-03-14T17:32:21;4.90;99.90
50816;DHT22;39717;47.324;8.788;2023-03-14T17:34:47;4.80;99.90
50816;DHT22;39717;47.324;8.788;2023-03-14T17:37:14;4.90;99.90
50816;DHT22;39717;47.324;8.788;2023-03-14T17:39:40;4.80;99.90
50816;DHT22;39717;47.324;8.788;2023-03-14T17:42:06;4.80;99.90
50816;DHT22;39717;47.324;8.788;2023-03-14T17:44:32;5.00;99.90
50816;DHT22;39717;47.324;8.788;2023-03-14T17:46:59;5.00;99.90
50816;DHT22;39717;47.324;8.788;2023-03-14T17:49:26;5.20;99.90
50816;DHT22;39717;47.324;8.788;2023-03-14T17:51:52;5.00;99.90
50816;DHT22;39717;47.324;8.788;2023-03-14T17:54:18;5.10;99.90
50816;DHT22;39717;47.324;8.788;2023-03-14T17:56:43;5.30;99.90
50816;DHT22;39717;47.324;8.788;2023-03-14T17:59:10;5.20;99.90
50816;DHT22;39717;47.324;8.788;2023-03-14T18:01:38;5.40;99.90
50816;DHT22;39717;47.324;8.788;2023-03-14T18:04:06;5.40;99.90
50816;DHT22;39717;47.324;8.788;2023-03-14T18:06:32;5.50;99.90
50816;DHT22;39717;47.324;8.788;2023-03-14T18:08:59;5.50;99.90
50816;DHT22;39717;47.324;8.788;2023-03-14T18:11:27;5.40;99.90
50816;DHT22;39717;47.324;8.788;2023-03-14T18:13:52;5.40;99.90
50816;DHT22;39717;47.324;8.788;2023-03-14T18:16:18;5.40;99.90
50816;DHT22;39717;47.324;8.788;2023-03-14T18:18:45;5.40;99.90
50816;DHT22;39717;47.324;8.788;2023-03-14T18:21:12;5.30;99.90
50816;DHT22;39717;47.324;8.788;2023-03-14T18:23:38;5.30;99.90
50816;DHT22;39717;47.324;8.788;2023-03-14T18:26:04;5.30;99.90
50816;DHT22;39717;47.324;8.788;2023-03-14T18:28:31;5.30;99.90
50816;DHT22;39717;47.324;8.788;2023-03-14T18:31:15;5.30;99.90
50816;DHT22;39717;47.324;8.788;2023-03-14T18:33:47;5.30;99.90
50816;DHT22;39717;47.324;8.788;2023-03-14T18:36:12;5.40;99.90
50816;DHT22;39717;47.324;8.788;2023-03-14T18:38:38;5.40;99.90
50816;DHT22;39717;47.324;8.788;2023-03-14T18:41:09;5.60;99.90
50816;DHT22;39717;47.324;8.788;2023-03-14T18:43:35;5.60;99.90
50816;DHT22;39717;47.324;8.788;2023-03-14T18:46:01;5.60;99.90
50816;DHT22;39717;47.324;8.788;2023-03-14T18:48:29;5.60;99.90
50816;DHT22;39717;47.324;8.788;2023-03-14T18:50:57;5.50;99.90
50816;DHT22;39717;47.324;8.788;2023-03-14T18:53:23;5.40;99.90
50816;DHT22;39717;47.324;8.788;2023-03-14T18:56:00;5.40;99.90
50816;DHT22;39717;47.324;8.788;2023-03-14T18:58:27;5.30;99.90
50816;DHT22;39717;47.324;8.788;2023-03-14T19:01:00;5.40;99.90
50816;DHT22;39717;47.324;8.788;2023-03-14T19:03:27;5.40;99.90
50816;DHT22;39717;47.324;8.788;2023-03-14T19:05:54;5.50;99.90
50816;DHT22;39717;47.324;8.788;2023-03-14T19:08:22;5.40;99.90
50816;DHT22;39717;47.324;8.788;2023-03-14T19:10:50;5.50;99.90
50816;DHT22;39717;47.324;8.788;2023-03-14T19:13:17;5.50;99.90
50816;DHT22;39717;47.324;8.788;2023-03-14T19:15:43;5.40;99.70
50816;DHT22;39717;47.324;8.788;2023-03-14T19:18:09;5.40;98.20
50816;DHT22;39717;47.324;8.788;2023-03-14T19:20:39;5.50;97.30
50816;DHT22;39717;47.324;8.788;2023-03-14T19:23:07;5.60;94.80
50816;DHT22;39717;47.324;8.788;2023-03-14T19:25:33;5.50;97.10
50816;DHT22;39717;47.324;8.788;2023-03-14T19:27:58;5.60;95.60
50816;DHT22;39717;47.324;8.788;2023-03-14T19:30:24;5.60;94.20
50816;DHT22;39717;47.324;8.788;2023-03-14T19:32:51;5.60;92.70
50816;DHT22;39717;47.324;8.788;2023-03-14T19:35:17;5.60;93.30
50816;DHT22;39717;47.324;8.788;2023-03-14T19:37:43;5.40;94.50
50816;DHT22;39717;47.324;8.788;2023-03-14T19:40:12;5.40;93.90
50816;DHT22;39717;47.324;8.788;2023-03-14T19:42:38;5.50;92.20
50816;DHT22;39717;47.324;8.788;2023-03-14T19:45:05;5.60;91.10
50816;DHT22;39717;47.324;8.788;2023-03-14T19:47:31;5.60;90.50
50816;DHT22;39717;47.324;8.788;2023-03-14T19:49:57;5.70;90.00
50816;DHT22;39717;47.324;8.788;2023-03-14T19:52:24;5.70;90.10
50816;DHT22;39717;47.324;8.788;2023-03-14T19:54:49;5.70;89.40
50816;DHT22;39717;47.324;8.788;2023-03-14T19:57:16;5.60;90.50
50816;DHT22;39717;47.324;8.788;2023-03-14T19:59:42;5.70;87.90
50816;DHT22;39717;47.324;8.788;2023-03-14T20:02:13;5.70;88.90
50816;DHT22;39717;47.324;8.788;2023-03-14T20:04:39;5.70;87.50
50816;DHT22;39717;47.324;8.788;2023-03-14T20:07:09;5.70;87.40
50816;DHT22;39717;47.324;8.788;2023-03-14T20:09:38;5.70;87.50
50816;DHT22;39717;47.324;8.788;2023-03-14T20:12:04;5.70;86.50
50816;DHT22;39717;47.324;8.788;2023-03-14T20:14:29;5.70;87.80
50816;DHT22;39717;47.324;8.788;2023-03-14T20:16:55;5.80;85.80
50816;DHT22;39717;47.324;8.788;2023-03-14T20:19:21;5.70;85.30
50816;DHT22;39717;47.324;8.788;2023-03-14T20:21:48;5.80;85.30
50816;DHT22;39717;47.324;8.788;2023-03-14T20:24:14;5.80;85.00
50816;DHT22;39717;47.324;8.788;2023-03-14T20:26:39;5.80;84.30
50816;DHT22;39717;47.324;8.788;2023-03-14T20:29:05;5.90;83.70
50816;DHT22;39717;47.324;8.788;2023-03-14T20:31:31;5.90;81.80
50816;DHT22;39717;47.324;8.788;2023-03-14T20:33:59;5.90;82.00
50816;DHT22;39717;47.324;8.788;2023-03-14T20:36:24;5.80;81.20
50816;DHT22;39717;47.324;8.788;2023-03-14T20:38:50;5.90;80.10
50816;DHT22;39717;47.324;8.788;2023-03-14T20:41:16;5.90;78.70
50816;DHT22;39717;47.324;8.788;2023-03-14T20:43:42;5.90;79.10
50816;DHT22;39717;47.324;8.788;2023-03-14T20:46:10;5.80;80.40
50816;DHT22;39717;47.324;8.788;2023-03-14T20:48:37;5.90;79.10
50816;DHT22;39717;47.324;8.788;2023-03-14T20:51:03;5.80;74.30
50816;DHT22;39717;47.324;8.788;2023-03-14T20:53:29;5.70;70.60
50816;DHT22;39717;47.324;8.788;2023-03-14T20:55:55;5.50;72.00
50816;DHT22;39717;47.324;8.788;2023-03-14T20:58:22;5.50;70.80
50816;DHT22;39717;47.324;8.788;2023-03-14T21:00:50;5.40;71.90
50816;DHT22;39717;47.324;8.788;2023-03-14T21:03:18;5.40;70.30
50816;DHT22;39717;47.324;8.788;2023-03-14T21:05:44;5.40;70.40
50816;DHT22;39717;47.324;8.788;2023-03-14T21:08:12;5.30;69.40
50816;DHT22;39717;47.324;8.788;2023-03-14T21:10:38;5.30;67.60
50816;DHT22;39717;47.324;8.788;2023-03-14T21:13:04;5.40;67.80
50816;DHT22;39717;47.324;8.788;2023-03-14T21:15:30;5.40;66.10
50816;DHT22;39717;47.324;8.788;2023-03-14T21:17:56;5.30;66.20
50816;DHT22;39717;47.324;8.788;2023-03-14T21:20:22;5.30;66.10
50816;DHT22;39717;47.324;8.788;2023-03-14T21:22:51;5.40;63.40
50816;DHT22;39717;47.324;8.788;2023-03-14T21:25:18;5.50;61.50
50816;DHT22;39717;47.324;8.788;2023-03-14T21:27:43;5.50;61.50
50816;DHT22;39717;47.324;8.788;2023-03-14T21:30:10;5.50;61.20
50816;DHT22;39717;47.324;8.788;2023-03-14T21:32:37;5.40;61.60
50816;DHT22;39717;47.324;8.788;2023-03-14T21:35:03;5.40;61.40
50816;DHT22;39717;47.324;8.788;2023-03-14T21:37:28;5.50;59.80
50816;DHT22;39717;47.324;8.788;2023-03-14T21:39:54;5.60;58.80
50816;DHT22;39717;47.324;8.788;2023-03-14T21:42:22;5.50;59.20
50816;DHT22;39717;47.324;8.788;2023-03-14T21:44:48;5.60;56.70
50816;DHT22;39717;47.324;8.788;2023-03-14T21:47:17;5.60;56.40
50816;DHT22;39717;47.324;8.788;2023-03-14T21:49:44;5.60;55.50
50816;DHT22;39717;47.324;8.788;2023-03-14T21:52:12;5.70;53.40
50816;DHT22;39717;47.324;8.788;2023-03-14T21:54:39;5.70;54.60
50816;DHT22;39717;47.324;8.788;2023-03-14T21:57:08;5.70;54.90
50816;DHT22;39717;47.324;8.788;2023-03-14T21:59:35;5.70;53.10
50816;DHT22;39717;47.324;8.788;2023-03-14T22:02:09;5.80;51.00
50816;DHT22;39717;47.324;8.788;2023-03-14T22:04:36;5.80;52.60
50816;DHT22;39717;47.324;8.788;2023-03-14T22:07:08;5.80;53.10
50816;DHT22;39717;47.324;8.788;2023-03-14T22:09:38;5.80;51.70
50816;DHT22;39717;47.324;8.788;2023-03-14T22:12:05;5.70;53.60
50816;DHT22;39717;47.324;8.788;2023-03-14T22:14:31;5.70;54.90
50816;DHT22;39717;47.324;8.788;2023-03-14T22:16:57;5.60;58.20
50816;DHT22;39717;47.324;8.788;2023-03-14T22:19:26;5.50;60.40
50816;DHT22;39717;47.324;8.788;2023-03-14T22:21:52;5.50;60.80
50816;DHT22;39717;47.324;8.788;2023-03-14T22:24:18;5.50;61.50
50816;DHT22;39717;47.324;8.788;2023-03-14T22:26:44;5.50;60.60
50816;DHT22;39717;47.324;8.788;2023-03-14T22:29:10;5.50;61.00
50816;DHT22;39717;47.324;8.788;2023-03-14T22:31:36;5.50;61.00
50816;DHT22;39717;47.324;8.788;2023-03-14T22:34:01;5.50;61.50
50816;DHT22;39717;47.324;8.788;2023-03-14T22:36:27;5.40;63.20
50816;DHT22;39717;47.324;8.788;2023-03-14T22:38:53;5.40;65.80
50816;DHT22;39717;47.324;8.788;2023-03-14T22:41:19;5.20;68.50
50816;DHT22;39717;47.324;8.788;2023-03-14T22:43:44;5.10;71.60
50816;DHT22;39717;47.324;8.788;2023-03-14T22:46:10;5.00;85.30
50816;DHT22;39717;47.324;8.788;2023-03-14T22:48:36;4.90;84.00
50816;DHT22;39717;47.324;8.788;2023-03-14T22:51:09;4.90;90.10
50816;DHT22;39717;47.324;8.788;2023-03-14T22:53:36;4.70;92.70
50816;DHT22;39717;47.324;8.788;2023-03-14T22:56:04;4.60;94.70
50816;DHT22;39717;47.324;8.788;2023-03-14T22:58:32;4.60;97.00
50816;DHT22;39717;47.324;8.788;2023-03-14T23:00:58;4.50;99.90
50816;DHT22;39717;47.324;8.788;2023-03-14T23:03:25;4.40;99.90
50816;DHT22;39717;47.324;8.788;2023-03-14T23:05:51;4.40;99.90
50816;DHT22;39717;47.324;8.788;2023-03-14T23:08:17;4.40;98.60
50816;DHT22;39717;47.324;8.788;2023-03-14T23:10:43;4.30;99.90
50816;DHT22;39717;47.324;8.788;2023-03-14T23:13:10;4.20;99.90
50816;DHT22;39717;47.324;8.788;2023-03-14T23:15:41;4.10;99.90
50816;DHT22;39717;47.324;8.788;2023-03-14T23:18:08;4.10;99.90
50816;DHT22;39717;47.324;8.788;2023-03-14T23:20:34;4.00;99.90
50816;DHT22;39717;47.324;8.788;2023-03-14T23:23:00;3.90;99.90
50816;DHT22;39717;47.324;8.788;2023-03-14T23:25:26;3.90;99.90
50816;DHT22;39717;47.324;8.788;2023-03-14T23:27:51;3.80;99.90
50816;DHT22;39717;47.324;8.788;2023-03-14T23:30:19;3.70;99.90
50816;DHT22;39717;47.324;8.788;2023-03-14T23:32:46;3.80;99.90
50816;DHT22;39717;47.324;8.788;2023-03-14T23:35:13;3.70;99.90
50816;DHT22;39717;47.324;8.788;2023-03-14T23:37:40;3.70;99.90
50816;DHT22;39717;47.324;8.788;2023-03-14T23:40:06;3.70;99.90
50816;DHT22;39717;47.324;8.788;2023-03-14T23:42:34;3.70;99.90
50816;DHT22;39717;47.324;8.788;2023-03-14T23:45:00;3.70;99.90
50816;DHT22;39717;47.324;8.788;2023-03-14T23:47:27;3.70;99.90
50816;DHT22;39717;47.324;8.788;2023-03-14T23:49:53;3.70;99.90
50816;DHT22;39717;47.324;8.788;2023-03-14T23:52:18;3.80;99.90
50816;DHT22;39717;47.324;8.788;2023-03-14T23:54:44;3.70;99.90
50816;DHT22;39717;47.324;8.788;2023-03-14T23:57:10;3.70;99.90
50816;DHT22;39717;47.324;8.788;2023-03-14T23:59:38;3.60;99.90
